sensor_id;sensor_type;location;lat;lon;timestamp;pressure;altitude;pressure_sealevel;temperature;humidity
47154;BME280;32907;41.412;2.164;2023-03-01T00:01:44;100570.25;;;15.91;27.03
47154;BME280;32907;41.412;2.164;2023-03-01T00:04:12;100490.47;;;15.47;26.72
47154;BME280;32907;41.412;2.164;2023-03-01T00:06:42;100570.78;;;15.88;26.39
47154;BME280;32907;41.412;2.164;2023-03-01T00:09:10;100556.41;;;15.83;26.66
47154;BME280;32907;41.412;2.164;2023-03-01T00:11:39;100544.16;;;15.70;26.75
47154;BME280;32907;41.412;2.164;2023-03-01T00:14:07;100545.28;;;15.74;26.77
47154;BME280;32907;41.412;2.164;2023-03-01T00:16:40;100485.78;;;15.27;26.96
47154;BME280;32907;41.412;2.164;2023-03-01T00:19:16;100540.34;;;15.61;26.67
47154;BME280;32907;41.412;2.164;2023-03-01T00:21:45;100473.31;;;15.21;26.53
47154;BME280;32907;41.412;2.164;2023-03-01T00:24:14;100563.00;;;15.60;26.65
47154;BME280;32907;41.412;2.164;2023-03-01T00:26:42;100547.38;;;15.62;26.57
47154;BME280;32907;41.412;2.164;2023-03-01T00:29:10;100547.94;;;15.64;26.33
47154;BME280;32907;41.412;2.164;2023-03-01T00:31:38;100538.88;;;15.48;26.17
47154;BME280;32907;41.412;2.164;2023-03-01T00:34:06;100547.56;;;15.55;25.96
47154;BME280;32907;41.412;2.164;2023-03-01T00:36:35;100529.94;;;15.48;26.33
47154;BME280;32907;41.412;2.164;2023-03-01T00:39:07;100545.59;;;15.46;26.48
47154;BME280;32907;41.412;2.164;2023-03-01T00:41:37;100518.19;;;15.27;26.58
47154;BME280;32907;41.412;2.164;2023-03-01T00:44:08;100552.69;;;15.52;26.50
47154;BME280;32907;41.412;2.164;2023-03-01T00:46:36;100490.59;;;15.20;26.68
47154;BME280;32907;41.412;2.164;2023-03-01T00:49:04;100374.81;;;14.27;26.43
47154;BME280;32907;41.412;2.164;2023-03-01T00:51:32;100436.81;;;14.81;26.45
47154;BME280;32907;41.412;2.164;2023-03-01T00:54:03;100557.16;;;15.36;26.66
47154;BME280;32907;41.412;2.164;2023-03-01T00:56:31;100505.97;;;15.19;26.67
47154;BME280;32907;41.412;2.164;2023-03-01T00:58:59;100545.59;;;15.41;26.86
47154;BME280;32907;41.412;2.164;2023-03-01T01:01:29;100560.13;;;15.39;27.19
47154;BME280;32907;41.412;2.164;2023-03-01T01:04:04;100508.94;;;15.18;27.03
47154;BME280;32907;41.412;2.164;2023-03-01T01:06:37;100532.63;;;15.43;26.82
47154;BME280;32907;41.412;2.164;2023-03-01T01:09:06;100548.84;;;15.48;26.91
47154;BME280;32907;41.412;2.164;2023-03-01T01:11:35;100430.50;;;14.65;26.80
47154;BME280;32907;41.412;2.164;2023-03-01T01:14:04;100528.28;;;15.42;26.87
47154;BME280;32907;41.412;2.164;2023-03-01T01:16:33;100548.91;;;15.53;27.02
47154;BME280;32907;41.412;2.164;2023-03-01T01:19:02;100552.69;;;15.52;26.94
47154;BME280;32907;41.412;2.164;2023-03-01T01:21:30;100538.28;;;15.41;26.90
47154;BME280;32907;41.412;2.164;2023-03-01T01:23:59;100550.47;;;15.44;26.92
47154;BME280;32907;41.412;2.164;2023-03-01T01:26:29;100496.22;;;15.13;27.30
47154;BME280;32907;41.412;2.164;2023-03-01T01:29:01;100553.13;;;15.38;27.06
47154;BME280;32907;41.412;2.164;2023-03-01T01:31:31;100466.78;;;14.79;26.66
47154;BME280;32907;41.412;2.164;2023-03-01T01:34:02;100539.75;;;15.22;27.14
47154;BME280;32907;41.412;2.164;2023-03-01T01:36:32;100520.34;;;15.25;27.36
47154;BME280;32907;41.412;2.164;2023-03-01T01:39:01;100547.69;;;15.33;26.41
47154;BME280;32907;41.412;2.164;2023-03-01T01:41:31;100499.91;;;15.02;26.16
47154;BME280;32907;41.412;2.164;2023-03-01T01:44:21;100534.69;;;15.30;26.20
47154;BME280;32907;41.412;2.164;2023-03-01T01:46:59;100488.47;;;14.90;26.34
47154;BME280;32907;41.412;2.164;2023-03-01T01:54:53;100528.13;;;15.21;26.33
47154;BME280;32907;41.412;2.164;2023-03-01T01:57:30;100459.22;;;14.76;26.37
47154;BME280;32907;41.412;2.164;2023-03-01T02:00:07;100539.00;;;15.26;26.09
47154;BME280;32907;41.412;2.164;2023-03-01T02:02:43;100520.59;;;15.23;26.01
47154;BME280;32907;41.412;2.164;2023-03-01T02:05:54;100548.47;;;15.29;25.91
47154;BME280;32907;41.412;2.164;2023-03-01T02:08:14;100552.16;;;15.18;25.58
47154;BME280;32907;41.412;2.164;2023-03-01T02:10:45;100557.25;;;15.14;25.54
47154;BME280;32907;41.412;2.164;2023-03-01T02:13:13;100530.91;;;14.99;25.72
47154;BME280;32907;41.412;2.164;2023-03-01T02:15:41;100488.31;;;14.69;25.46
47154;BME280;32907;41.412;2.164;2023-03-01T02:18:14;100552.91;;;15.08;25.83
47154;BME280;32907;41.412;2.164;2023-03-01T02:23:30;100518.59;;;14.76;25.65
47154;BME280;32907;41.412;2.164;2023-03-01T02:26:13;100542.50;;;14.95;25.86
47154;BME280;32907;41.412;2.164;2023-03-01T02:28:48;100524.56;;;14.83;25.97
47154;BME280;32907;41.412;2.164;2023-03-01T02:31:19;100534.97;;;14.97;26.10
47154;BME280;32907;41.412;2.164;2023-03-01T02:34:08;100512.75;;;14.90;26.06
47154;BME280;32907;41.412;2.164;2023-03-01T02:36:39;100536.31;;;14.99;26.01
47154;BME280;32907;41.412;2.164;2023-03-01T02:39:14;100539.81;;;14.95;25.94
47154;BME280;32907;41.412;2.164;2023-03-01T02:41:49;100498.03;;;14.70;26.01
47154;BME280;32907;41.412;2.164;2023-03-01T02:44:17;100555.94;;;14.90;26.12
47154;BME280;32907;41.412;2.164;2023-03-01T02:46:49;100558.16;;;14.93;26.11
47154;BME280;32907;41.412;2.164;2023-03-01T02:49:24;100538.03;;;14.78;26.02
47154;BME280;32907;41.412;2.164;2023-03-01T02:54:56;100491.13;;;14.52;26.01
47154;BME280;32907;41.412;2.164;2023-03-01T02:57:27;100501.28;;;14.45;26.23
47154;BME280;32907;41.412;2.164;2023-03-01T02:59:57;100556.38;;;14.76;26.15
47154;BME280;32907;41.412;2.164;2023-03-01T03:02:29;100506.97;;;14.49;26.03
47154;BME280;32907;41.412;2.164;2023-03-01T03:05:24;100542.31;;;14.74;26.08
47154;BME280;32907;41.412;2.164;2023-03-01T03:07:57;100537.22;;;14.78;26.13
47154;BME280;32907;41.412;2.164;2023-03-01T03:10:28;100539.66;;;14.79;26.20
47154;BME280;32907;41.412;2.164;2023-03-01T03:12:59;100530.50;;;14.80;25.95
47154;BME280;32907;41.412;2.164;2023-03-01T03:15:29;100534.28;;;14.79;26.10
47154;BME280;32907;41.412;2.164;2023-03-01T03:17:58;100527.75;;;14.75;25.80
47154;BME280;32907;41.412;2.164;2023-03-01T03:20:28;100482.63;;;14.44;25.64
47154;BME280;32907;41.412;2.164;2023-03-01T03:22:57;100524.91;;;14.60;26.00
47154;BME280;32907;41.412;2.164;2023-03-01T03:25:27;100519.13;;;14.51;26.02
47154;BME280;32907;41.412;2.164;2023-03-01T03:27:58;100517.28;;;14.52;26.02
47154;BME280;32907;41.412;2.164;2023-03-01T03:30:31;100494.44;;;14.38;26.12
47154;BME280;32907;41.412;2.164;2023-03-01T03:33:00;100517.22;;;14.47;26.06
47154;BME280;32907;41.412;2.164;2023-03-01T03:35:33;100513.44;;;14.48;26.09
47154;BME280;32907;41.412;2.164;2023-03-01T03:38:05;100494.06;;;14.29;26.50
47154;BME280;32907;41.412;2.164;2023-03-01T03:40:36;100434.09;;;13.95;26.07
47154;BME280;32907;41.412;2.164;2023-03-01T03:43:09;100523.44;;;14.47;26.32
47154;BME280;32907;41.412;2.164;2023-03-01T03:45:39;100521.53;;;14.48;26.37
47154;BME280;32907;41.412;2.164;2023-03-01T03:48:09;100515.00;;;14.44;26.17
47154;BME280;32907;41.412;2.164;2023-03-01T03:50:38;100497.59;;;14.30;26.25
47154;BME280;32907;41.412;2.164;2023-03-01T03:53:09;100517.31;;;14.35;26.20
47154;BME280;32907;41.412;2.164;2023-03-01T03:55:38;100497.97;;;14.16;26.70
47154;BME280;32907;41.412;2.164;2023-03-01T03:58:08;100525.41;;;14.35;26.65
47154;BME280;32907;41.412;2.164;2023-03-01T04:00:41;100522.47;;;14.37;26.56
47154;BME280;32907;41.412;2.164;2023-03-01T04:03:11;100519.25;;;14.40;26.35
47154;BME280;32907;41.412;2.164;2023-03-01T04:05:40;100512.25;;;14.39;26.36
47154;BME280;32907;41.412;2.164;2023-03-01T04:08:09;100473.19;;;14.19;26.37
47154;BME280;32907;41.412;2.164;2023-03-01T04:10:43;100508.72;;;14.38;26.35
47154;BME280;32907;41.412;2.164;2023-03-01T04:13:13;100489.44;;;14.24;26.11
47154;BME280;32907;41.412;2.164;2023-03-01T04:15:42;100448.97;;;13.97;26.05
47154;BME280;32907;41.412;2.164;2023-03-01T04:18:14;100527.88;;;14.37;26.22
47154;BME280;32907;41.412;2.164;2023-03-01T04:20:43;100520.63;;;14.42;26.17
47154;BME280;32907;41.412;2.164;2023-03-01T04:23:15;100494.31;;;14.27;26.15
47154;BME280;32907;41.412;2.164;2023-03-01T04:25:54;100514.53;;;14.47;26.10
47154;BME280;32907;41.412;2.164;2023-03-01T04:30:56;100506.97;;;14.49;26.72
47154;BME280;32907;41.412;2.164;2023-03-01T04:33:27;100452.44;;;14.20;26.43
47154;BME280;32907;41.412;2.164;2023-03-01T04:35:55;100515.75;;;14.61;26.66
47154;BME280;32907;41.412;2.164;2023-03-01T04:38:26;100510.34;;;14.61;26.50
47154;BME280;32907;41.412;2.164;2023-03-01T04:40:54;100495.38;;;14.48;26.39
47154;BME280;32907;41.412;2.164;2023-03-01T04:43:22;100528.47;;;14.66;26.42
47154;BME280;32907;41.412;2.164;2023-03-01T04:45:49;100480.31;;;14.31;26.55
47154;BME280;32907;41.412;2.164;2023-03-01T04:48:18;100520.63;;;14.64;26.52
47154;BME280;32907;41.412;2.164;2023-03-01T04:50:46;100516.91;;;14.70;26.13
47154;BME280;32907;41.412;2.164;2023-03-01T04:53:14;100463.06;;;14.32;25.93
47154;BME280;32907;41.412;2.164;2023-03-01T04:55:41;100485.78;;;14.36;26.11
47154;BME280;32907;41.412;2.164;2023-03-01T04:58:09;100489.22;;;14.53;26.30
47154;BME280;32907;41.412;2.164;2023-03-01T05:00:37;100524.50;;;14.73;26.52
47154;BME280;32907;41.412;2.164;2023-03-01T05:03:07;100495.78;;;14.62;26.16
47154;BME280;32907;41.412;2.164;2023-03-01T05:05:37;100517.47;;;14.72;26.31
47154;BME280;32907;41.412;2.164;2023-03-01T05:08:07;100513.69;;;14.73;26.47
47154;BME280;32907;41.412;2.164;2023-03-01T05:10:36;100436.56;;;14.23;26.35
47154;BME280;32907;41.412;2.164;2023-03-01T05:13:05;100503.31;;;14.60;26.20
47154;BME280;32907;41.412;2.164;2023-03-01T05:15:34;100481.06;;;14.48;26.74
47154;BME280;32907;41.412;2.164;2023-03-01T05:18:04;100483.25;;;14.51;26.58
47154;BME280;32907;41.412;2.164;2023-03-01T05:20:34;100519.63;;;14.70;26.29
47154;BME280;32907;41.412;2.164;2023-03-01T05:23:04;100533.75;;;14.82;26.41
47154;BME280;32907;41.412;2.164;2023-03-01T05:25:33;100518.34;;;14.78;26.20
47154;BME280;32907;41.412;2.164;2023-03-01T05:28:02;100531.84;;;14.83;26.24
47154;BME280;32907;41.412;2.164;2023-03-01T05:30:34;100500.03;;;14.58;26.13
47154;BME280;32907;41.412;2.164;2023-03-01T05:33:02;100505.44;;;14.58;26.00
47154;BME280;32907;41.412;2.164;2023-03-01T05:35:32;100538.34;;;14.82;26.00
47154;BME280;32907;41.412;2.164;2023-03-01T05:38:00;100542.66;;;14.83;26.26
47154;BME280;32907;41.412;2.164;2023-03-01T05:40:28;100530.22;;;14.82;26.09
47154;BME280;32907;41.412;2.164;2023-03-01T05:42:57;100423.44;;;14.05;26.01
47154;BME280;32907;41.412;2.164;2023-03-01T05:45:26;100532.94;;;14.82;26.35
47154;BME280;32907;41.412;2.164;2023-03-01T05:47:57;100537.84;;;14.85;26.98
47154;BME280;32907;41.412;2.164;2023-03-01T05:50:28;100531.22;;;14.71;26.99
47154;BME280;32907;41.412;2.164;2023-03-01T05:53:11;100507.06;;;14.59;27.34
47154;BME280;32907;41.412;2.164;2023-03-01T05:55:40;100544.88;;;14.91;28.05
47154;BME280;32907;41.412;2.164;2023-03-01T05:58:11;100545.28;;;15.00;27.78
47154;BME280;32907;41.412;2.164;2023-03-01T06:00:42;100544.13;;;14.96;28.04
47154;BME280;32907;41.412;2.164;2023-03-01T06:03:12;100532.22;;;14.92;27.56
47154;BME280;32907;41.412;2.164;2023-03-01T06:05:41;100546.84;;;14.96;27.84
47154;BME280;32907;41.412;2.164;2023-03-01T06:08:11;100513.41;;;14.70;28.11
47154;BME280;32907;41.412;2.164;2023-03-01T06:10:40;100541.34;;;14.86;28.46
47154;BME280;32907;41.412;2.164;2023-03-01T06:13:08;100448.91;;;14.19;29.02
47154;BME280;32907;41.412;2.164;2023-03-01T06:15:39;100523.53;;;14.85;29.45
47154;BME280;32907;41.412;2.164;2023-03-01T06:18:08;100537.03;;;14.85;29.12
47154;BME280;32907;41.412;2.164;2023-03-01T06:20:36;100539.47;;;14.86;28.94
47154;BME280;32907;41.412;2.164;2023-03-01T06:23:04;100521.84;;;14.78;29.05
47154;BME280;32907;41.412;2.164;2023-03-01T06:25:32;100530.91;;;14.94;29.67
47154;BME280;32907;41.412;2.164;2023-03-01T06:28:00;100537.19;;;15.05;30.55
47154;BME280;32907;41.412;2.164;2023-03-01T06:30:28;100506.53;;;14.89;30.90
47154;BME280;32907;41.412;2.164;2023-03-01T06:32:56;100534.81;;;15.14;30.46
47154;BME280;32907;41.412;2.164;2023-03-01T06:35:29;100473.72;;;14.70;30.31
47154;BME280;32907;41.412;2.164;2023-03-01T06:38:02;100496.59;;;14.95;31.61
47154;BME280;32907;41.412;2.164;2023-03-01T06:40:32;100457.56;;;14.75;31.40
47154;BME280;32907;41.412;2.164;2023-03-01T06:43:02;100527.63;;;15.24;30.88
47154;BME280;32907;41.412;2.164;2023-03-01T06:45:30;100463.06;;;14.86;29.91
47154;BME280;32907;41.412;2.164;2023-03-01T06:48:06;100536.31;;;15.31;30.10
47154;BME280;32907;41.412;2.164;2023-03-01T06:50:37;100553.09;;;15.33;30.44
47154;BME280;32907;41.412;2.164;2023-03-01T06:53:15;100482.56;;;14.93;29.01
47154;BME280;32907;41.412;2.164;2023-03-01T06:55:43;100548.28;;;15.41;43.62
47154;BME280;32907;41.412;2.164;2023-03-01T06:58:11;100545.28;;;15.74;33.99
47154;BME280;32907;41.412;2.164;2023-03-01T07:00:39;100549.16;;;15.93;30.02
47154;BME280;32907;41.412;2.164;2023-03-01T07:03:08;100375.69;;;15.02;27.70
47154;BME280;32907;41.412;2.164;2023-03-01T07:05:37;100528.34;;;15.94;27.20
47154;BME280;32907;41.412;2.164;2023-03-01T07:08:05;100531.84;;;15.94;27.94
47154;BME280;32907;41.412;2.164;2023-03-01T07:10:34;100549.19;;;16.04;26.99
47154;BME280;32907;41.412;2.164;2023-03-01T07:13:01;100481.34;;;15.53;26.14
47154;BME280;32907;41.412;2.164;2023-03-01T07:15:29;100561.91;;;15.98;26.41
47154;BME280;32907;41.412;2.164;2023-03-01T07:17:57;100553.47;;;15.89;27.34
47154;BME280;32907;41.412;2.164;2023-03-01T07:20:25;100562.19;;;16.02;28.58
47154;BME280;32907;41.412;2.164;2023-03-01T07:22:55;100536.69;;;15.82;27.89
47154;BME280;32907;41.412;2.164;2023-03-01T07:25:26;100519.81;;;15.65;28.05
47154;BME280;32907;41.412;2.164;2023-03-01T07:27:55;100535.50;;;15.68;28.34
47154;BME280;32907;41.412;2.164;2023-03-01T07:30:23;100545.78;;;15.71;27.84
47154;BME280;32907;41.412;2.164;2023-03-01T07:32:55;100561.50;;;15.74;27.74
47154;BME280;32907;41.412;2.164;2023-03-01T07:35:25;100566.06;;;15.69;27.41
47154;BME280;32907;41.412;2.164;2023-03-01T07:37:54;100501.16;;;15.26;27.72
47154;BME280;32907;41.412;2.164;2023-03-01T07:40:23;100563.00;;;15.60;27.75
47154;BME280;32907;41.412;2.164;2023-03-01T07:42:56;100579.28;;;15.65;27.88
47154;BME280;32907;41.412;2.164;2023-03-01T07:45:25;100580.59;;;15.62;27.73
47154;BME280;32907;41.412;2.164;2023-03-01T07:47:54;100522.47;;;15.23;28.13
47154;BME280;32907;41.412;2.164;2023-03-01T07:50:23;100547.13;;;15.31;28.32
47154;BME280;32907;41.412;2.164;2023-03-01T07:52:51;100587.25;;;15.50;28.17
47154;BME280;32907;41.412;2.164;2023-03-01T07:55:20;100543.78;;;15.19;28.47
47154;BME280;32907;41.412;2.164;2023-03-01T07:57:48;100522.13;;;15.09;28.51
47154;BME280;32907;41.412;2.164;2023-03-01T08:00:16;100546.53;;;15.24;28.54
47154;BME280;32907;41.412;2.164;2023-03-01T08:02:44;100563.38;;;15.36;28.24
47154;BME280;32907;41.412;2.164;2023-03-01T08:05:13;100598.13;;;15.60;28.07
47154;BME280;32907;41.412;2.164;2023-03-01T08:07:41;100587.84;;;15.57;28.18
47154;BME280;32907;41.412;2.164;2023-03-01T08:10:11;100570.59;;;15.63;29.09
47154;BME280;32907;41.412;2.164;2023-03-01T08:12:38;100502.72;;;15.17;29.13
47154;BME280;32907;41.412;2.164;2023-03-01T08:15:07;100558.34;;;15.50;28.99
47154;BME280;32907;41.412;2.164;2023-03-01T08:17:35;100579.03;;;15.72;28.73
47154;BME280;32907;41.412;2.164;2023-03-01T08:20:03;100574.72;;;15.71;29.27
47154;BME280;32907;41.412;2.164;2023-03-01T08:22:34;100609.94;;;15.81;29.20
47154;BME280;32907;41.412;2.164;2023-03-01T08:25:02;100557.31;;;15.56;28.96
47154;BME280;32907;41.412;2.164;2023-03-01T08:27:30;100594.00;;;15.84;28.98
47154;BME280;32907;41.412;2.164;2023-03-01T08:29:59;100601.91;;;15.96;29.50
47154;BME280;32907;41.412;2.164;2023-03-01T08:32:27;100594.88;;;15.95;29.75
47154;BME280;32907;41.412;2.164;2023-03-01T08:34:55;100550.16;;;15.72;29.89
47154;BME280;32907;41.412;2.164;2023-03-01T08:37:23;100510.78;;;15.49;29.62
47154;BME280;32907;41.412;2.164;2023-03-01T08:39:51;100568.31;;;15.82;29.74
47154;BME280;32907;41.412;2.164;2023-03-01T08:42:19;100600.09;;;16.07;29.60
47154;BME280;32907;41.412;2.164;2023-03-01T08:44:46;100531.16;;;15.62;29.53
47154;BME280;32907;41.412;2.164;2023-03-01T08:47:14;100554.22;;;15.80;29.73
47154;BME280;32907;41.412;2.164;2023-03-01T08:49:42;100595.50;;;16.07;29.58
47154;BME280;32907;41.412;2.164;2023-03-01T08:52:10;100594.69;;;16.12;29.88
47154;BME280;32907;41.412;2.164;2023-03-01T08:54:38;100597.16;;;16.13;30.38
47154;BME280;32907;41.412;2.164;2023-03-01T08:57:06;100555.88;;;15.81;29.35
47154;BME280;32907;41.412;2.164;2023-03-01T08:59:36;100524.97;;;15.72;29.80
47154;BME280;32907;41.412;2.164;2023-03-01T09:02:15;100585.22;;;16.04;29.17
47154;BME280;32907;41.412;2.164;2023-03-01T09:04:43;100591.47;;;16.20;28.67
47154;BME280;32907;41.412;2.164;2023-03-01T09:07:11;100567.09;;;16.05;29.18
47154;BME280;32907;41.412;2.164;2023-03-01T09:09:39;100570.84;;;16.04;29.33
47154;BME280;32907;41.412;2.164;2023-03-01T09:12:07;100574.63;;;16.03;29.12
47154;BME280;32907;41.412;2.164;2023-03-01T09:14:35;100528.56;;;15.82;29.69
47154;BME280;32907;41.412;2.164;2023-03-01T09:17:05;100559.47;;;15.97;29.64
47154;BME280;32907;41.412;2.164;2023-03-01T09:19:33;100609.38;;;16.21;29.53
47154;BME280;32907;41.412;2.164;2023-03-01T09:22:03;100542.41;;;15.91;29.57
47154;BME280;32907;41.412;2.164;2023-03-01T09:24:31;100402.97;;;15.05;29.99
47154;BME280;32907;41.412;2.164;2023-03-01T09:26:59;100372.38;;;14.90;30.47
47154;BME280;32907;41.412;2.164;2023-03-01T09:29:28;100582.84;;;16.28;30.43
47154;BME280;32907;41.412;2.164;2023-03-01T09:31:56;100524.84;;;15.99;30.80
47154;BME280;32907;41.412;2.164;2023-03-01T09:34:25;100538.44;;;16.14;30.86
47154;BME280;32907;41.412;2.164;2023-03-01T09:36:54;100565.88;;;16.38;30.43
47154;BME280;32907;41.412;2.164;2023-03-01T09:39:22;100470.97;;;15.82;30.70
47154;BME280;32907;41.412;2.164;2023-03-01T09:42:02;100566.66;;;16.43;30.92
47154;BME280;32907;41.412;2.164;2023-03-01T09:44:54;100567.75;;;16.42;31.59
47154;BME280;32907;41.412;2.164;2023-03-01T09:47:28;100492.94;;;16.01;31.35
47154;BME280;32907;41.412;2.164;2023-03-01T09:50:13;100566.69;;;16.48;32.14
47154;BME280;32907;41.412;2.164;2023-03-01T09:52:43;100551.28;;;16.49;32.49
47154;BME280;32907;41.412;2.164;2023-03-01T09:55:16;100398.66;;;15.57;32.18
47154;BME280;32907;41.412;2.164;2023-03-01T09:57:47;100553.69;;;16.50;31.75
47154;BME280;32907;41.412;2.164;2023-03-01T10:02:57;100401.97;;;15.64;31.75
47154;BME280;32907;41.412;2.164;2023-03-01T10:05:48;100410.63;;;15.66;31.57
47154;BME280;32907;41.412;2.164;2023-03-01T10:08:29;100438.78;;;15.75;31.83
47154;BME280;32907;41.412;2.164;2023-03-01T10:11:00;100424.13;;;15.66;31.58
47154;BME280;32907;41.412;2.164;2023-03-01T10:13:55;100432.88;;;15.88;31.58
47154;BME280;32907;41.412;2.164;2023-03-01T10:19:16;100537.78;;;16.64;31.77
47154;BME280;32907;41.412;2.164;2023-03-01T10:21:46;100235.69;;;14.68;31.77
47154;BME280;32907;41.412;2.164;2023-03-01T10:24:16;100479.75;;;16.25;32.07
47154;BME280;32907;41.412;2.164;2023-03-01T10:27:05;100442.38;;;16.11;32.21
47154;BME280;32907;41.412;2.164;2023-03-01T10:29:49;100536.47;;;16.77;31.95
47154;BME280;32907;41.412;2.164;2023-03-01T10:32:22;100245.56;;;15.00;31.90
47154;BME280;32907;41.412;2.164;2023-03-01T10:34:51;100405.31;;;16.02;32.17
47154;BME280;32907;41.412;2.164;2023-03-01T10:37:21;100537.56;;;16.86;31.56
47154;BME280;32907;41.412;2.164;2023-03-01T10:40:02;100416.69;;;16.09;31.06
47154;BME280;32907;41.412;2.164;2023-03-01T10:42:39;100499.09;;;16.74;30.65
47154;BME280;32907;41.412;2.164;2023-03-01T10:45:40;100316.22;;;15.54;31.19
47154;BME280;32907;41.412;2.164;2023-03-01T10:50:46;100346.03;;;15.64;30.45
47154;BME280;32907;41.412;2.164;2023-03-01T10:53:24;100530.53;;;16.90;30.52
47154;BME280;32907;41.412;2.164;2023-03-01T10:56:03;100467.66;;;16.53;29.73
47154;BME280;32907;41.412;2.164;2023-03-01T10:58:34;100356.47;;;15.56;28.11
47154;BME280;32907;41.412;2.164;2023-03-01T11:01:05;100214.97;;;14.84;27.04
47154;BME280;32907;41.412;2.164;2023-03-01T11:03:38;100460.56;;;16.21;26.27
47154;BME280;32907;41.412;2.164;2023-03-01T11:08:45;100211.69;;;14.77;25.56
47154;BME280;32907;41.412;2.164;2023-03-01T11:11:18;100511.25;;;16.61;25.82
47154;BME280;32907;41.412;2.164;2023-03-01T11:14:06;100515.03;;;16.55;25.18
47154;BME280;32907;41.412;2.164;2023-03-01T11:17:12;100499.56;;;16.50;25.15
47154;BME280;32907;41.412;2.164;2023-03-01T11:19:42;100350.25;;;15.55;25.21
47154;BME280;32907;41.412;2.164;2023-03-01T11:22:21;100508.25;;;16.53;25.92
47154;BME280;32907;41.412;2.164;2023-03-01T11:24:53;100262.28;;;15.02;25.34
47154;BME280;32907;41.412;2.164;2023-03-01T11:27:43;100428.06;;;16.16;25.12
47154;BME280;32907;41.412;2.164;2023-03-01T11:30:38;100488.78;;;16.61;24.32
47154;BME280;32907;41.412;2.164;2023-03-01T11:33:21;100482.25;;;16.57;23.57
47154;BME280;32907;41.412;2.164;2023-03-01T11:36:03;100275.03;;;15.22;23.44
47154;BME280;32907;41.412;2.164;2023-03-01T11:38:35;100473.06;;;16.47;22.92
47154;BME280;32907;41.412;2.164;2023-03-01T11:41:17;100474.13;;;16.46;23.30
47154;BME280;32907;41.412;2.164;2023-03-01T11:43:54;100299.13;;;15.28;24.33
47154;BME280;32907;41.412;2.164;2023-03-01T11:55:35;100456.78;;;16.42;22.88
47154;BME280;32907;41.412;2.164;2023-03-01T12:04:00;100441.38;;;16.48;24.38
47154;BME280;32907;41.412;2.164;2023-03-01T12:09:17;100429.47;;;16.54;24.09
47154;BME280;32907;41.412;2.164;2023-03-01T12:17:32;100395.38;;;16.48;24.50
47154;BME280;32907;41.412;2.164;2023-03-01T12:20:25;100413.22;;;16.59;24.56
47154;BME280;32907;41.412;2.164;2023-03-01T12:40:27;100339.34;;;16.08;25.45
47154;BME280;32907;41.412;2.164;2023-03-01T12:43:20;100389.41;;;16.56;25.21
47154;BME280;32907;41.412;2.164;2023-03-01T12:46:10;100388.88;;;16.54;25.27
47154;BME280;32907;41.412;2.164;2023-03-01T12:51:38;100266.31;;;15.82;25.05
47154;BME280;32907;41.412;2.164;2023-03-01T12:54:26;100267.38;;;15.86;24.96
47154;BME280;32907;41.412;2.164;2023-03-01T12:56:57;100202.16;;;15.42;24.94
47154;BME280;32907;41.412;2.164;2023-03-01T12:59:36;100364.53;;;16.54;25.21
47154;BME280;32907;41.412;2.164;2023-03-01T13:02:25;100355.84;;;16.47;24.81
47154;BME280;32907;41.412;2.164;2023-03-01T13:10:24;100084.84;;;14.77;24.87
47154;BME280;32907;41.412;2.164;2023-03-01T13:15:35;100197.91;;;15.77;24.65
47154;BME280;32907;41.412;2.164;2023-03-01T13:20:51;100340.44;;;16.73;24.55
47154;BME280;32907;41.412;2.164;2023-03-01T13:23:28;100330.69;;;16.62;24.17
47154;BME280;32907;41.412;2.164;2023-03-01T13:39:29;100247.66;;;16.01;22.77
47154;BME280;32907;41.412;2.164;2023-03-01T13:42:00;99990.09;;;14.53;23.61
47154;BME280;32907;41.412;2.164;2023-03-01T13:44:36;100036.53;;;14.91;23.07
47154;BME280;32907;41.412;2.164;2023-03-01T13:49:52;100197.34;;;16.00;23.45
47154;BME280;32907;41.412;2.164;2023-03-01T13:52:37;100297.06;;;16.68;23.46
47154;BME280;32907;41.412;2.164;2023-03-01T13:55:38;100290.88;;;16.72;23.90
47154;BME280;32907;41.412;2.164;2023-03-01T14:03:27;100258.44;;;16.42;24.78
47154;BME280;32907;41.412;2.164;2023-03-01T14:08:45;100241.66;;;16.35;24.33
47154;BME280;32907;41.412;2.164;2023-03-01T14:14:13;100285.72;;;16.66;24.55
47154;BME280;32907;41.412;2.164;2023-03-01T14:19:35;100239.47;;;16.47;27.42
47154;BME280;32907;41.412;2.164;2023-03-01T14:22:23;100289.50;;;16.85;27.22
47154;BME280;32907;41.412;2.164;2023-03-01T14:24:59;100249.47;;;16.62;26.70
47154;BME280;32907;41.412;2.164;2023-03-01T14:27:33;100137.03;;;16.00;25.99
47154;BME280;32907;41.412;2.164;2023-03-01T14:30:13;99965.28;;;15.02;26.37
47154;BME280;32907;41.412;2.164;2023-03-01T14:32:42;99991.44;;;15.06;26.65
47154;BME280;32907;41.412;2.164;2023-03-01T14:35:25;100012.25;;;15.21;25.73
47154;BME280;32907;41.412;2.164;2023-03-01T14:37:54;100024.13;;;15.30;25.72
47154;BME280;32907;41.412;2.164;2023-03-01T14:40:29;100274.03;;;16.91;25.45
47154;BME280;32907;41.412;2.164;2023-03-01T14:43:00;100126.22;;;16.00;25.69
47154;BME280;32907;41.412;2.164;2023-03-01T14:45:29;100032.78;;;15.27;25.84
47154;BME280;32907;41.412;2.164;2023-03-01T14:48:03;100094.38;;;15.51;26.29
47154;BME280;32907;41.412;2.164;2023-03-01T14:50:34;100286.81;;;16.80;26.38
47154;BME280;32907;41.412;2.164;2023-03-01T14:53:05;100302.50;;;16.83;26.16
47154;BME280;32907;41.412;2.164;2023-03-01T14:55:38;99941.78;;;14.67;25.77
47154;BME280;32907;41.412;2.164;2023-03-01T14:58:13;99986.31;;;14.90;26.10
47154;BME280;32907;41.412;2.164;2023-03-01T15:00:53;100004.97;;;15.01;25.86
47154;BME280;32907;41.412;2.164;2023-03-01T15:03:37;100090.03;;;15.55;26.23
47154;BME280;32907;41.412;2.164;2023-03-01T15:06:08;100268.94;;;16.79;26.75